sensor_id;sensor_type;location;lat;lon;timestamp;pressure;altitude;pressure_sealevel;temperature;humidity
16525;BME280;8375;33.594;-117.718;2024-02-21T00:00:44;100641.91;;;13.72;100.00
16525;BME280;8375;33.594;-117.718;2024-02-21T00:03:12;100641.34;;;13.68;100.00
16525;BME280;8375;33.594;-117.718;2024-02-21T00:05:41;100646.22;;;13.61;100.00
16525;BME280;8375;33.594;-117.718;2024-02-21T00:08:10;100640.31;;;13.59;100.00
16525;BME280;8375;33.594;-117.718;2024-02-21T00:10:40;100640.31;;;13.59;100.00
16525;BME280;8375;33.594;-117.718;2024-02-21T00:13:09;100631.53;;;13.60;100.00
16525;BME280;8375;33.594;-117.718;2024-02-21T00:15:37;100639.34;;;13.60;100.00
16525;BME280;8375;33.594;-117.718;2024-02-21T00:18:06;100635.78;;;13.61;100.00
16525;BME280;8375;33.594;-117.718;2024-02-21T00:20:35;100638.13;;;13.64;100.00
16525;BME280;8375;33.594;-117.718;2024-02-21T00:23:04;100632.63;;;13.58;100.00
16525;BME280;8375;33.594;-117.718;2024-02-21T00:25:32;100638.66;;;13.58;100.00
16525;BME280;8375;33.594;-117.718;2024-02-21T00:28:03;100630.13;;;13.56;100.00
16525;BME280;8375;33.594;-117.718;2024-02-21T00:30:32;100628.56;;;13.65;100.00
16525;BME280;8375;33.594;-117.718;2024-02-21T00:33:01;100623.34;;;13.65;100.00
16525;BME280;8375;33.594;-117.718;2024-02-21T00:35:30;100622.63;;;13.63;100.00
16525;BME280;8375;33.594;-117.718;2024-02-21T00:37:58;100626.91;;;13.64;100.00
16525;BME280;8375;33.594;-117.718;2024-02-21T00:40:27;100624.97;;;13.66;100.00
16525;BME280;8375;33.594;-117.718;2024-02-21T00:42:56;100624.59;;;13.71;100.00
16525;BME280;8375;33.594;-117.718;2024-02-21T00:45:26;100629.53;;;13.74;100.00
16525;BME280;8375;33.594;-117.718;2024-02-21T00:47:55;100629.44;;;13.75;100.00
16525;BME280;8375;33.594;-117.718;2024-02-21T00:50:23;100628.34;;;13.78;100.00
16525;BME280;8375;33.594;-117.718;2024-02-21T00:52:52;100628.59;;;13.75;100.00
16525;BME280;8375;33.594;-117.718;2024-02-21T00:55:21;100624.22;;;13.75;100.00
16525;BME280;8375;33.594;-117.718;2024-02-21T00:57:49;100617.00;;;13.68;100.00
16525;BME280;8375;33.594;-117.718;2024-02-21T01:00:19;100609.34;;;13.66;100.00
16525;BME280;8375;33.594;-117.718;2024-02-21T01:02:50;100606.13;;;13.62;100.00
16525;BME280;8375;33.594;-117.718;2024-02-21T01:05:19;100610.78;;;13.59;100.00
16525;BME280;8375;33.594;-117.718;2024-02-21T01:07:49;100599.53;;;13.58;100.00
16525;BME280;8375;33.594;-117.718;2024-02-21T01:10:17;100598.97;;;13.55;100.00
16525;BME280;8375;33.594;-117.718;2024-02-21T01:12:46;100607.59;;;13.55;100.00
16525;BME280;8375;33.594;-117.718;2024-02-21T01:15:15;100626.56;;;13.57;100.00
16525;BME280;8375;33.594;-117.718;2024-02-21T01:17:43;100639.59;;;13.57;100.00
16525;BME280;8375;33.594;-117.718;2024-02-21T01:20:14;100638.78;;;13.57;100.00
16525;BME280;8375;33.594;-117.718;2024-02-21T01:22:43;100637.00;;;13.57;100.00
16525;BME280;8375;33.594;-117.718;2024-02-21T01:25:11;100628.59;;;13.54;100.00
16525;BME280;8375;33.594;-117.718;2024-02-21T01:27:40;100638.78;;;13.57;100.00
16525;BME280;8375;33.594;-117.718;2024-02-21T01:30:09;100639.84;;;13.54;100.00
16525;BME280;8375;33.594;-117.718;2024-02-21T01:32:38;100630.25;;;13.55;100.00
16525;BME280;8375;33.594;-117.718;2024-02-21T01:35:08;100606.47;;;13.48;100.00
16525;BME280;8375;33.594;-117.718;2024-02-21T01:37:38;100625.91;;;13.44;100.00
16525;BME280;8375;33.594;-117.718;2024-02-21T01:40:08;100632.78;;;13.45;100.00
16525;BME280;8375;33.594;-117.718;2024-02-21T01:42:38;100640.38;;;13.48;100.00
16525;BME280;8375;33.594;-117.718;2024-02-21T01:45:08;100638.38;;;13.40;100.00
16525;BME280;8375;33.594;-117.718;2024-02-21T01:47:37;100634.69;;;13.43;100.00
16525;BME280;8375;33.594;-117.718;2024-02-21T01:50:07;100617.41;;;13.42;100.00
16525;BME280;8375;33.594;-117.718;2024-02-21T01:52:39;100629.47;;;13.43;100.00
16525;BME280;8375;33.594;-117.718;2024-02-21T01:55:08;100626.06;;;13.42;100.00
16525;BME280;8375;33.594;-117.718;2024-02-21T01:57:40;100627.50;;;13.35;100.00
16525;BME280;8375;33.594;-117.718;2024-02-21T02:00:10;100627.22;;;13.38;100.00
16525;BME280;8375;33.594;-117.718;2024-02-21T02:02:40;100632.31;;;13.40;100.00
16525;BME280;8375;33.594;-117.718;2024-02-21T02:05:11;100625.59;;;13.37;100.00
16525;BME280;8375;33.594;-117.718;2024-02-21T02:07:42;100624.75;;;13.37;100.00
16525;BME280;8375;33.594;-117.718;2024-02-21T02:10:10;100629.94;;;13.37;100.00
16525;BME280;8375;33.594;-117.718;2024-02-21T02:12:39;100645.50;;;13.38;100.00
16525;BME280;8375;33.594;-117.718;2024-02-21T02:15:08;100640.53;;;13.35;100.00
16525;BME280;8375;33.594;-117.718;2024-02-21T02:17:37;100631.28;;;13.31;100.00
16525;BME280;8375;33.594;-117.718;2024-02-21T02:20:07;100633.19;;;13.29;100.00
16525;BME280;8375;33.594;-117.718;2024-02-21T02:22:37;100628.34;;;13.24;100.00
16525;BME280;8375;33.594;-117.718;2024-02-21T02:25:09;100632.50;;;13.27;100.00
16525;BME280;8375;33.594;-117.718;2024-02-21T02:27:47;100656.78;;;13.27;100.00
16525;BME280;8375;33.594;-117.718;2024-02-21T02:30:16;100654.91;;;13.18;100.00
16525;BME280;8375;33.594;-117.718;2024-02-21T02:32:45;100656.69;;;13.17;100.00
16525;BME280;8375;33.594;-117.718;2024-02-21T02:35:14;100653.00;;;13.20;100.00
16525;BME280;8375;33.594;-117.718;2024-02-21T02:37:48;100652.06;;;13.21;100.00
16525;BME280;8375;33.594;-117.718;2024-02-21T02:40:19;100663.53;;;13.18;100.00
16525;BME280;8375;33.594;-117.718;2024-02-21T02:42:48;100646.25;;;13.17;100.00
16525;BME280;8375;33.594;-117.718;2024-02-21T02:45:17;100654.06;;;13.17;100.00
16525;BME280;8375;33.594;-117.718;2024-02-21T02:47:45;100654.78;;;13.19;100.00
16525;BME280;8375;33.594;-117.718;2024-02-21T02:50:14;100653.50;;;13.14;100.00
16525;BME280;8375;33.594;-117.718;2024-02-21T02:52:43;100659.41;;;13.16;100.00
16525;BME280;8375;33.594;-117.718;2024-02-21T02:55:12;100667.09;;;13.17;100.00
16525;BME280;8375;33.594;-117.718;2024-02-21T02:57:42;100664.50;;;13.17;100.00
16525;BME280;8375;33.594;-117.718;2024-02-21T03:00:12;100661.56;;;13.11;100.00
16525;BME280;8375;33.594;-117.718;2024-02-21T03:02:42;100657.16;;;13.11;100.00
16525;BME280;8375;33.594;-117.718;2024-02-21T03:05:15;100651.97;;;13.11;100.00
16525;BME280;8375;33.594;-117.718;2024-02-21T03:07:44;100650.31;;;13.10;100.00
16525;BME280;8375;33.594;-117.718;2024-02-21T03:10:13;100651.97;;;13.11;100.00
16525;BME280;8375;33.594;-117.718;2024-02-21T03:12:44;100654.31;;;13.14;100.00
16525;BME280;8375;33.594;-117.718;2024-02-21T03:15:13;100658.72;;;13.14;100.00
16525;BME280;8375;33.594;-117.718;2024-02-21T03:17:42;100669.00;;;13.15;100.00
16525;BME280;8375;33.594;-117.718;2024-02-21T03:20:11;100667.25;;;13.16;100.00
16525;BME280;8375;33.594;-117.718;2024-02-21T03:22:40;100660.38;;;13.15;100.00
16525;BME280;8375;33.594;-117.718;2024-02-21T03:25:09;100652.81;;;13.12;100.00
16525;BME280;8375;33.594;-117.718;2024-02-21T03:27:39;100658.00;;;13.12;100.00
16525;BME280;8375;33.594;-117.718;2024-02-21T03:30:10;100649.50;;;13.10;100.00
16525;BME280;8375;33.594;-117.718;2024-02-21T03:32:39;100645.34;;;13.07;100.00
16525;BME280;8375;33.594;-117.718;2024-02-21T03:35:08;100639.44;;;12.94;100.00
16525;BME280;8375;33.594;-117.718;2024-02-21T03:37:36;100650.34;;;12.99;100.00
16525;BME280;8375;33.594;-117.718;2024-02-21T03:40:08;100645.03;;;13.00;100.00
16525;BME280;8375;33.594;-117.718;2024-02-21T03:42:37;100641.47;;;13.01;100.00
16525;BME280;8375;33.594;-117.718;2024-02-21T03:45:07;100651.28;;;12.98;100.00
16525;BME280;8375;33.594;-117.718;2024-02-21T03:47:37;100639.22;;;12.97;100.00
16525;BME280;8375;33.594;-117.718;2024-02-21T03:50:07;100640.88;;;12.98;100.00
16525;BME280;8375;33.594;-117.718;2024-02-21T03:52:35;100646.06;;;12.98;100.00
16525;BME280;8375;33.594;-117.718;2024-02-21T03:55:05;100654.59;;;13.00;100.00
16525;BME280;8375;33.594;-117.718;2024-02-21T03:57:34;100651.19;;;12.99;100.00
16525;BME280;8375;33.594;-117.718;2024-02-21T04:00:03;100650.47;;;12.97;100.00
16525;BME280;8375;33.594;-117.718;2024-02-21T04:02:35;100655.78;;;12.96;100.00
16525;BME280;8375;33.594;-117.718;2024-02-21T04:05:06;100651.28;;;12.98;100.00
16525;BME280;8375;33.594;-117.718;2024-02-21T04:07:37;100647.63;;;13.00;100.00
16525;BME280;8375;33.594;-117.718;2024-02-21T04:10:07;100638.84;;;13.01;100.00
16525;BME280;8375;33.594;-117.718;2024-02-21T04:12:35;100643.13;;;13.02;100.00
16525;BME280;8375;33.594;-117.718;2024-02-21T04:15:05;100640.50;;;13.02;100.00
16525;BME280;8375;33.594;-117.718;2024-02-21T04:17:33;100640.25;;;13.05;100.00
16525;BME280;8375;33.594;-117.718;2024-02-21T04:20:05;100641.91;;;13.06;100.00
16525;BME280;8375;33.594;-117.718;2024-02-21T04:22:35;100654.00;;;13.08;100.00
16525;BME280;8375;33.594;-117.718;2024-02-21T04:25:04;100660.97;;;13.07;100.00
16525;BME280;8375;33.594;-117.718;2024-02-21T04:27:32;100656.59;;;13.08;100.00
16525;BME280;8375;33.594;-117.718;2024-02-21T04:30:01;100651.25;;;13.09;100.00
16525;BME280;8375;33.594;-117.718;2024-02-21T04:32:30;100651.25;;;13.09;100.00
16525;BME280;8375;33.594;-117.718;2024-02-21T04:34:59;100654.72;;;13.10;100.00
16525;BME280;8375;33.594;-117.718;2024-02-21T04:37:29;100651.25;;;13.09;100.00
16525;BME280;8375;33.594;-117.718;2024-02-21T04:39:57;100645.22;;;13.09;100.00
16525;BME280;8375;33.594;-117.718;2024-02-21T04:42:26;100648.78;;;13.08;100.00
16525;BME280;8375;33.594;-117.718;2024-02-21T04:44:55;100637.75;;;13.04;100.00
16525;BME280;8375;33.594;-117.718;2024-02-21T04:47:23;100641.25;;;12.93;100.00
16525;BME280;8375;33.594;-117.718;2024-02-21T04:49:52;100630.59;;;12.96;100.00
16525;BME280;8375;33.594;-117.718;2024-02-21T04:52:20;100632.94;;;12.99;100.00
16525;BME280;8375;33.594;-117.718;2024-02-21T04:54:51;100626.88;;;12.99;100.00
16525;BME280;8375;33.594;-117.718;2024-02-21T04:57:20;100622.75;;;12.96;100.00
16525;BME280;8375;33.594;-117.718;2024-02-21T04:59:48;100616.72;;;12.96;100.00
16525;BME280;8375;33.594;-117.718;2024-02-21T05:02:17;100621.00;;;12.85;100.00
16525;BME280;8375;33.594;-117.718;2024-02-21T05:04:46;100618.28;;;12.87;100.00
16525;BME280;8375;33.594;-117.718;2024-02-21T05:07:15;100609.75;;;12.85;100.00
16525;BME280;8375;33.594;-117.718;2024-02-21T05:09:46;100606.22;;;12.86;100.00
16525;BME280;8375;33.594;-117.718;2024-02-21T05:12:16;100606.47;;;12.83;100.00
16525;BME280;8375;33.594;-117.718;2024-02-21T05:14:45;100603.97;;;12.81;100.00
16525;BME280;8375;33.594;-117.718;2024-02-21T05:17:14;100607.41;;;12.82;100.00
16525;BME280;8375;33.594;-117.718;2024-02-21T05:19:43;100605.63;;;12.82;100.00
16525;BME280;8375;33.594;-117.718;2024-02-21T05:22:12;100607.16;;;12.85;100.00
16525;BME280;8375;33.594;-117.718;2024-02-21T05:24:40;100623.50;;;12.87;100.00
16525;BME280;8375;33.594;-117.718;2024-02-21T05:27:09;100614.72;;;12.88;100.00
16525;BME280;8375;33.594;-117.718;2024-02-21T05:29:39;100605.97;;;12.89;100.00
16525;BME280;8375;33.594;-117.718;2024-02-21T05:32:08;100607.63;;;12.90;100.00
16525;BME280;8375;33.594;-117.718;2024-02-21T05:34:36;100607.63;;;12.90;100.00
16525;BME280;8375;33.594;-117.718;2024-02-21T05:37:05;100600.75;;;12.89;100.00
16525;BME280;8375;33.594;-117.718;2024-02-21T05:39:33;100611.88;;;12.91;100.00
16525;BME280;8375;33.594;-117.718;2024-02-21T05:42:02;100609.13;;;12.93;100.00
16525;BME280;8375;33.594;-117.718;2024-02-21T05:44:31;100606.53;;;12.93;100.00
16525;BME280;8375;33.594;-117.718;2024-02-21T05:47:01;100616.16;;;12.92;100.00
16525;BME280;8375;33.594;-117.718;2024-02-21T05:49:30;100598.16;;;12.89;100.00
16525;BME280;8375;33.594;-117.718;2024-02-21T05:51:58;100601.00;;;12.86;100.00
16525;BME280;8375;33.594;-117.718;2024-02-21T05:54:27;100608.69;;;12.87;100.00
16525;BME280;8375;33.594;-117.718;2024-02-21T05:56:55;100603.34;;;12.89;100.00
16525;BME280;8375;33.594;-117.718;2024-02-21T05:59:24;100609.38;;;12.89;100.00
16525;BME280;8375;33.594;-117.718;2024-02-21T06:01:56;100604.06;;;12.91;100.00
16525;BME280;8375;33.594;-117.718;2024-02-21T06:04:27;100601.31;;;12.93;100.00
16525;BME280;8375;33.594;-117.718;2024-02-21T06:06:55;100609.03;;;12.94;100.00
16525;BME280;8375;33.594;-117.718;2024-02-21T06:09:24;100609.03;;;12.94;100.00
16525;BME280;8375;33.594;-117.718;2024-02-21T06:11:53;100600.25;;;12.95;100.00
16525;BME280;8375;33.594;-117.718;2024-02-21T06:14:21;100598.00;;;12.90;100.00
16525;BME280;8375;33.594;-117.718;2024-02-21T06:16:50;100596.50;;;12.88;100.00
16525;BME280;8375;33.594;-117.718;2024-02-21T06:19:18;100592.09;;;12.88;100.00
16525;BME280;8375;33.594;-117.718;2024-02-21T06:21:49;100598.97;;;12.89;100.00
16525;BME280;8375;33.594;-117.718;2024-02-21T06:24:17;100602.28;;;12.91;100.00
16525;BME280;8375;33.594;-117.718;2024-02-21T06:26:46;100596.25;;;12.91;100.00
16525;BME280;8375;33.594;-117.718;2024-02-21T06:29:14;100598.16;;;12.89;100.00
16525;BME280;8375;33.594;-117.718;2024-02-21T06:31:43;100586.84;;;12.67;100.00
16525;BME280;8375;33.594;-117.718;2024-02-21T06:34:12;100582.19;;;12.71;100.00
16525;BME280;8375;33.594;-117.718;2024-02-21T06:36:40;100572.72;;;12.70;100.00
16525;BME280;8375;33.594;-117.718;2024-02-21T06:39:11;100575.25;;;12.60;100.00
16525;BME280;8375;33.594;-117.718;2024-02-21T06:41:39;100579.38;;;12.62;100.00
16525;BME280;8375;33.594;-117.718;2024-02-21T06:44:08;100589.44;;;12.67;100.00
16525;BME280;8375;33.594;-117.718;2024-02-21T06:46:37;100594.28;;;12.72;100.00
16525;BME280;8375;33.594;-117.718;2024-02-21T06:49:05;100594.16;;;12.73;100.00
16525;BME280;8375;33.594;-117.718;2024-02-21T06:51:34;100589.66;;;12.75;100.00
16525;BME280;8375;33.594;-117.718;2024-02-21T06:54:03;100584.44;;;12.75;100.00
16525;BME280;8375;33.594;-117.718;2024-02-21T06:56:34;100581.84;;;12.75;100.00
16525;BME280;8375;33.594;-117.718;2024-02-21T06:59:02;100579.25;;;12.75;100.00
16525;BME280;8375;33.594;-117.718;2024-02-21T07:01:31;100574.75;;;12.77;100.00
16525;BME280;8375;33.594;-117.718;2024-02-21T07:04:00;100570.34;;;12.78;100.00
16525;BME280;8375;33.594;-117.718;2024-02-21T07:06:29;100563.38;;;12.79;100.00
16525;BME280;8375;33.594;-117.718;2024-02-21T07:08:58;100558.97;;;12.79;100.00
16525;BME280;8375;33.594;-117.718;2024-02-21T07:11:26;100564.44;;;12.76;100.00
16525;BME280;8375;33.594;-117.718;2024-02-21T07:13:56;100566.09;;;12.77;100.00
16525;BME280;8375;33.594;-117.718;2024-02-21T07:16:25;100568.56;;;12.79;100.00
16525;BME280;8375;33.594;-117.718;2024-02-21T07:18:55;100574.59;;;12.79;100.00
16525;BME280;8375;33.594;-117.718;2024-02-21T07:21:24;100572.13;;;12.77;100.00
16525;BME280;8375;33.594;-117.718;2024-02-21T07:23:53;100564.31;;;12.77;100.00
16525;BME280;8375;33.594;-117.718;2024-02-21T07:26:21;100572.25;;;12.76;100.00
16525;BME280;8375;33.594;-117.718;2024-02-21T07:28:52;100568.81;;;12.75;100.00
16525;BME280;8375;33.594;-117.718;2024-02-21T07:31:22;100565.28;;;12.76;100.00
16525;BME280;8375;33.594;-117.718;2024-02-21T07:33:51;100562.66;;;12.76;100.00
16525;BME280;8375;33.594;-117.718;2024-02-21T07:36:29;100555.81;;;12.75;100.00
16525;BME280;8375;33.594;-117.718;2024-02-21T07:38:58;100549.63;;;12.76;100.00
16525;BME280;8375;33.594;-117.718;2024-02-21T07:41:26;100550.59;;;12.75;100.00
16525;BME280;8375;33.594;-117.718;2024-02-21T07:43:57;100540.16;;;12.75;100.00
16525;BME280;8375;33.594;-117.718;2024-02-21T07:46:27;100542.78;;;12.75;100.00
16525;BME280;8375;33.594;-117.718;2024-02-21T07:48:56;100538.50;;;12.74;100.00
16525;BME280;8375;33.594;-117.718;2024-02-21T08:06:34;100547.03;;;12.76;100.00
16525;BME280;8375;33.594;-117.718;2024-02-21T08:09:03;100543.59;;;12.76;100.00
16525;BME280;8375;33.594;-117.718;2024-02-21T08:11:31;100552.25;;;12.76;100.00
16525;BME280;8375;33.594;-117.718;2024-02-21T08:14:00;100543.59;;;12.76;100.00
16525;BME280;8375;33.594;-117.718;2024-02-21T08:16:29;100540.88;;;12.77;100.00
16525;BME280;8375;33.594;-117.718;2024-02-21T08:18:58;100543.59;;;12.76;100.00
16525;BME280;8375;33.594;-117.718;2024-02-21T08:21:28;100541.38;;;12.71;100.00
16525;BME280;8375;33.594;-117.718;2024-02-21T08:23:58;100537.09;;;12.70;100.00
16525;BME280;8375;33.594;-117.718;2024-02-21T08:26:27;100536.03;;;12.73;100.00
16525;BME280;8375;33.594;-117.718;2024-02-21T08:28:57;100532.00;;;12.69;100.00
16525;BME280;8375;33.594;-117.718;2024-02-21T08:31:27;100525.03;;;12.69;100.00
16525;BME280;8375;33.594;-117.718;2024-02-21T08:33:58;100526.56;;;12.72;100.00
16525;BME280;8375;33.594;-117.718;2024-02-21T08:36:29;100513.66;;;12.70;100.00
16525;BME280;8375;33.594;-117.718;2024-02-21T08:39:00;100505.97;;;12.69;100.00
16525;BME280;8375;33.594;-117.718;2024-02-21T08:41:31;100514.63;;;12.69;100.00
16525;BME280;8375;33.594;-117.718;2024-02-21T08:44:00;100518.88;;;12.70;100.00
16525;BME280;8375;33.594;-117.718;2024-02-21T08:46:29;100522.44;;;12.69;100.00
16525;BME280;8375;33.594;-117.718;2024-02-21T08:48:58;100530.00;;;12.72;100.00
16525;BME280;8375;33.594;-117.718;2024-02-21T08:51:26;100524.78;;;12.72;100.00
16525;BME280;8375;33.594;-117.718;2024-02-21T08:53:55;100535.91;;;12.74;100.00
16525;BME280;8375;33.594;-117.718;2024-02-21T08:56:26;100533.31;;;12.74;100.00
16525;BME280;8375;33.594;-117.718;2024-02-21T08:58:54;100528.91;;;12.75;100.00
16525;BME280;8375;33.594;-117.718;2024-02-21T09:01:24;100524.53;;;12.75;100.00
16525;BME280;8375;33.594;-117.718;2024-02-21T09:03:52;100518.63;;;12.73;100.00
16525;BME280;8375;33.594;-117.718;2024-02-21T09:06:23;100513.53;;;12.72;100.00
16525;BME280;8375;33.594;-117.718;2024-02-21T09:08:52;100517.09;;;12.71;100.00
16525;BME280;8375;33.594;-117.718;2024-02-21T09:11:25;100515.56;;;12.68;100.00
16525;BME280;8375;33.594;-117.718;2024-02-21T09:13:54;100512.25;;;12.66;100.00
16525;BME280;8375;33.594;-117.718;2024-02-21T09:16:23;100513.91;;;12.67;100.00
16525;BME280;8375;33.594;-117.718;2024-02-21T09:18:52;100497.44;;;12.67;100.00
16525;BME280;8375;33.594;-117.718;2024-02-21T09:21:20;100494.97;;;12.65;100.00
16525;BME280;8375;33.594;-117.718;2024-02-21T09:23:49;100506.09;;;12.67;100.00
16525;BME280;8375;33.594;-117.718;2024-02-21T09:26:18;100503.50;;;12.67;100.00
16525;BME280;8375;33.594;-117.718;2024-02-21T09:28:48;100499.09;;;12.68;100.00
16525;BME280;8375;33.594;-117.718;2024-02-21T09:31:17;100495.22;;;12.62;100.00
16525;BME280;8375;33.594;-117.718;2024-02-21T09:33:46;100493.56;;;12.61;100.00
16525;BME280;8375;33.594;-117.718;2024-02-21T09:36:15;100490.03;;;12.62;100.00
16525;BME280;8375;33.594;-117.718;2024-02-21T09:38:43;100495.94;;;12.64;100.00
16525;BME280;8375;33.594;-117.718;2024-02-21T09:41:18;100491.69;;;12.63;100.00
16525;BME280;8375;33.594;-117.718;2024-02-21T09:43:50;100498.53;;;12.64;100.00
16525;BME280;8375;33.594;-117.718;2024-02-21T09:46:38;100493.19;;;12.66;100.00
16525;BME280;8375;33.594;-117.718;2024-02-21T09:49:16;100487.41;;;12.62;100.00
16525;BME280;8375;33.594;-117.718;2024-02-21T09:51:50;100495.22;;;12.62;100.00
16525;BME280;8375;33.594;-117.718;2024-02-21T09:54:20;100496.03;;;12.62;100.00
16525;BME280;8375;33.594;-117.718;2024-02-21T09:56:49;100483.88;;;12.63;100.00
16525;BME280;8375;33.594;-117.718;2024-02-21T09:59:20;100487.53;;;12.60;100.00
16525;BME280;8375;33.594;-117.718;2024-02-21T10:01:49;100495.22;;;12.62;100.00
16525;BME280;8375;33.594;-117.718;2024-02-21T10:04:18;100496.88;;;12.63;100.00
16525;BME280;8375;33.594;-117.718;2024-02-21T10:06:46;100495.22;;;12.62;100.00
16525;BME280;8375;33.594;-117.718;2024-02-21T10:09:22;100499.75;;;12.60;100.00
16525;BME280;8375;33.594;-117.718;2024-02-21T10:11:54;100488.28;;;12.51;100.00
16525;BME280;8375;33.594;-117.718;2024-02-21T10:14:24;100490.06;;;12.51;100.00
16525;BME280;8375;33.594;-117.718;2024-02-21T10:16:57;100481.66;;;12.47;100.00
16525;BME280;8375;33.594;-117.718;2024-02-21T10:19:26;100486.75;;;12.49;100.00
16525;BME280;8375;33.594;-117.718;2024-02-21T10:22:02;100484.72;;;12.52;100.00
16525;BME280;8375;33.594;-117.718;2024-02-21T10:24:31;100492.53;;;12.52;100.00
16525;BME280;8375;33.594;-117.718;2024-02-21T10:27:02;100484.84;;;12.51;100.00
16525;BME280;8375;33.594;-117.718;2024-02-21T10:29:32;100482.50;;;12.47;100.00
16525;BME280;8375;33.594;-117.718;2024-02-21T10:32:08;100473.75;;;12.49;100.00
16525;BME280;8375;33.594;-117.718;2024-02-21T10:34:40;100469.34;;;12.49;100.00
16525;BME280;8375;33.594;-117.718;2024-02-21T10:37:09;100475.38;;;12.50;100.00
16525;BME280;8375;33.594;-117.718;2024-02-21T10:39:39;100471.84;;;12.51;100.00
16525;BME280;8375;33.594;-117.718;2024-02-21T10:42:11;100475.13;;;12.53;100.00
16525;BME280;8375;33.594;-117.718;2024-02-21T10:44:41;100469.94;;;12.53;100.00
16525;BME280;8375;33.594;-117.718;2024-02-21T10:47:11;100465.53;;;12.53;100.00
16525;BME280;8375;33.594;-117.718;2024-02-21T10:49:44;100469.09;;;12.52;100.00
16525;BME280;8375;33.594;-117.718;2024-02-21T10:52:15;100459.53;;;12.53;100.00
16525;BME280;8375;33.594;-117.718;2024-02-21T10:54:47;100457.78;;;12.42;100.00
16525;BME280;8375;33.594;-117.718;2024-02-21T10:57:19;100457.41;;;12.46;100.00
16525;BME280;8375;33.594;-117.718;2024-02-21T10:59:51;100455.38;;;12.50;100.00
16525;BME280;8375;33.594;-117.718;2024-02-21T11:02:21;100456.22;;;12.51;100.00
16525;BME280;8375;33.594;-117.718;2024-02-21T11:04:51;100455.13;;;12.53;100.00
16525;BME280;8375;33.594;-117.718;2024-02-21T11:07:20;100451.72;;;12.53;100.00
16525;BME280;8375;33.594;-117.718;2024-02-21T11:09:53;100457.88;;;12.52;100.00
16525;BME280;8375;33.594;-117.718;2024-02-21T11:12:22;100457.03;;;12.51;100.00
16525;BME280;8375;33.594;-117.718;2024-02-21T11:15:03;100452.66;;;12.52;100.00
16525;BME280;8375;33.594;-117.718;2024-02-21T11:17:32;100453.59;;;12.51;100.00
16525;BME280;8375;33.594;-117.718;2024-02-21T11:20:11;100462.13;;;12.53;100.00
16525;BME280;8375;33.594;-117.718;2024-02-21T11:22:42;100465.69;;;12.52;100.00
16525;BME280;8375;33.594;-117.718;2024-02-21T11:25:11;100463.88;;;12.52;100.00
16525;BME280;8375;33.594;-117.718;2024-02-21T11:27:45;100464.03;;;12.51;100.00
16525;BME280;8375;33.594;-117.718;2024-02-21T11:30:16;100465.78;;;12.50;100.00
16525;BME280;8375;33.594;-117.718;2024-02-21T11:32:49;100457.03;;;12.51;100.00
16525;BME280;8375;33.594;-117.718;2024-02-21T11:35:20;100463.06;;;12.52;100.00
16525;BME280;8375;33.594;-117.718;2024-02-21T11:37:48;100469.94;;;12.53;100.00
16525;BME280;8375;33.594;-117.718;2024-02-21T11:40:17;100470.75;;;12.53;100.00
16525;BME280;8375;33.594;-117.718;2024-02-21T11:42:46;100470.03;;;12.51;100.00
16525;BME280;8375;33.594;-117.718;2024-02-21T11:45:17;100464.97;;;12.50;100.00
16525;BME280;8375;33.594;-117.718;2024-02-21T11:47:48;100471.84;;;12.51;100.00
16525;BME280;8375;33.594;-117.718;2024-02-21T11:52:54;100468.38;;;12.50;100.00
16525;BME280;8375;33.594;-117.718;2024-02-21T11:55:23;100467.44;;;12.51;100.00
16525;BME280;8375;33.594;-117.718;2024-02-21T11:57:52;100470.44;;;12.46;100.00
16525;BME280;8375;33.594;-117.718;2024-02-21T12:00:23;100467.16;;;12.33;100.00
16525;BME280;8375;33.594;-117.718;2024-02-21T12:02:52;100467.63;;;12.38;100.00
16525;BME280;8375;33.594;-117.718;2024-02-21T12:05:22;100469.50;;;12.36;100.00
16525;BME280;8375;33.594;-117.718;2024-02-21T12:07:53;100471.88;;;12.39;100.00
16525;BME280;8375;33.594;-117.718;2024-02-21T12:10:22;100471.72;;;12.41;100.00
16525;BME280;8375;33.594;-117.718;2024-02-21T12:12:50;100467.47;;;12.40;100.00
16525;BME280;8375;33.594;-117.718;2024-02-21T12:15:22;100479.53;;;12.41;100.00
16525;BME280;8375;33.594;-117.718;2024-02-21T12:17:51;100467.03;;;12.35;100.00
16525;BME280;8375;33.594;-117.718;2024-02-21T12:20:21;100464.06;;;12.39;100.00
16525;BME280;8375;33.594;-117.718;2024-02-21T12:22:50;100447.78;;;12.26;100.00
16525;BME280;8375;33.594;-117.718;2024-02-21T12:25:21;100450.63;;;12.23;100.00
16525;BME280;8375;33.594;-117.718;2024-02-21T12:27:52;100444.56;;;12.22;100.00
16525;BME280;8375;33.594;-117.718;2024-02-21T12:30:22;100443.06;;;12.20;100.00
16525;BME280;8375;33.594;-117.718;2024-02-21T12:32:51;100443.06;;;12.20;100.00
16525;BME280;8375;33.594;-117.718;2024-02-21T12:35:20;100468.00;;;12.22;100.00
16525;BME280;8375;33.594;-117.718;2024-02-21T12:37:48;100476.41;;;12.26;100.00
16525;BME280;8375;33.594;-117.718;2024-02-21T12:40:17;100479.72;;;12.28;100.00
16525;BME280;8375;33.594;-117.718;2024-02-21T12:42:46;100489.88;;;12.31;100.00
16525;BME280;8375;33.594;-117.718;2024-02-21T12:45:14;100494.25;;;12.30;100.00
16525;BME280;8375;33.594;-117.718;2024-02-21T12:47:45;100483.72;;;12.32;100.00
16525;BME280;8375;33.594;-117.718;2024-02-21T12:50:13;100485.38;;;12.33;100.00